sensor_id;sensor_type;location;lat;lon;timestamp;pressure;altitude;pressure_sealevel;temperature;humidity
47815;BME280;33579;50.058;18.130;2023-02-13T00:00:08;101294.50;;;2.11;100.00
47815;BME280;33579;50.058;18.130;2023-02-13T00:01:10;101297.91;;;2.15;100.00
47815;BME280;33579;50.058;18.130;2023-02-13T00:02:12;101298.78;;;2.14;100.00
47815;BME280;33579;50.058;18.130;2023-02-13T00:03:14;101302.28;;;2.11;100.00
47815;BME280;33579;50.058;18.130;2023-02-13T00:04:15;101302.28;;;2.13;100.00
47815;BME280;33579;50.058;18.130;2023-02-13T00:05:17;101302.19;;;2.17;100.00
47815;BME280;33579;50.058;18.130;2023-02-13T00:06:19;101296.94;;;2.20;100.00
47815;BME280;33579;50.058;18.130;2023-02-13T00:07:20;101295.13;;;2.24;100.00
47815;BME280;33579;50.058;18.130;2023-02-13T00:08:22;101302.97;;;2.21;100.00
47815;BME280;33579;50.058;18.130;2023-02-13T00:09:23;101301.31;;;2.17;100.00
47815;BME280;33579;50.058;18.130;2023-02-13T00:10:25;101298.72;;;2.18;100.00
47815;BME280;33579;50.058;18.130;2023-02-13T00:11:27;101305.53;;;2.22;100.00
47815;BME280;33579;50.058;18.130;2023-02-13T00:12:28;101302.03;;;2.25;100.00
47815;BME280;33579;50.058;18.130;2023-02-13T00:13:30;101302.88;;;2.25;100.00
47815;BME280;33579;50.058;18.130;2023-02-13T00:14:34;101306.38;;;2.24;100.00
47815;BME280;33579;50.058;18.130;2023-02-13T00:15:36;101307.19;;;2.27;100.00
47815;BME280;33579;50.058;18.130;2023-02-13T00:16:38;101301.97;;;2.28;100.00
47815;BME280;33579;50.058;18.130;2023-02-13T00:17:39;101302.84;;;2.29;100.00
47815;BME280;33579;50.058;18.130;2023-02-13T00:18:41;101307.16;;;2.30;100.00
47815;BME280;33579;50.058;18.130;2023-02-13T00:19:42;101299.31;;;2.33;100.00
47815;BME280;33579;50.058;18.130;2023-02-13T00:20:44;101302.78;;;2.32;100.00
47815;BME280;33579;50.058;18.130;2023-02-13T00:21:45;101302.78;;;2.32;100.00
47815;BME280;33579;50.058;18.130;2023-02-13T00:22:47;101297.53;;;2.33;100.00
47815;BME280;33579;50.058;18.130;2023-02-13T00:23:48;101297.53;;;2.33;100.00
47815;BME280;33579;50.058;18.130;2023-02-13T00:24:50;101300.13;;;2.35;100.00
47815;BME280;33579;50.058;18.130;2023-02-13T00:25:52;101296.63;;;2.36;100.00
47815;BME280;33579;50.058;18.130;2023-02-13T00:26:53;101295.81;;;2.34;100.00
47815;BME280;33579;50.058;18.130;2023-02-13T00:27:55;101289.75;;;2.33;100.00
47815;BME280;33579;50.058;18.130;2023-02-13T00:28:56;101288.84;;;2.34;100.00
47815;BME280;33579;50.058;18.130;2023-02-13T00:29:58;101284.53;;;2.35;100.00
47815;BME280;33579;50.058;18.130;2023-02-13T00:31:08;101286.25;;;2.34;100.00
47815;BME280;33579;50.058;18.130;2023-02-13T00:32:11;101288.84;;;2.36;100.00
47815;BME280;33579;50.058;18.130;2023-02-13T00:33:13;101288.84;;;2.36;100.00
47815;BME280;33579;50.058;18.130;2023-02-13T00:34:14;101296.63;;;2.36;100.00
47815;BME280;33579;50.058;18.130;2023-02-13T00:35:16;101293.22;;;2.34;100.00
47815;BME280;33579;50.058;18.130;2023-02-13T00:36:20;101291.53;;;2.31;100.00
47815;BME280;33579;50.058;18.130;2023-02-13T00:37:22;101291.50;;;2.33;100.00
47815;BME280;33579;50.058;18.130;2023-02-13T00:38:25;101293.22;;;2.34;100.00
47815;BME280;33579;50.058;18.130;2023-02-13T00:39:29;101294.91;;;2.36;100.00
47815;BME280;33579;50.058;18.130;2023-02-13T00:40:31;101294.03;;;2.36;100.00
47815;BME280;33579;50.058;18.130;2023-02-13T00:41:33;101300.13;;;2.33;100.00
47815;BME280;33579;50.058;18.130;2023-02-13T00:42:35;101303.69;;;2.31;100.00
47815;BME280;33579;50.058;18.130;2023-02-13T00:43:36;101297.66;;;2.29;100.00
47815;BME280;33579;50.058;18.130;2023-02-13T00:44:38;101300.28;;;2.27;100.00
47815;BME280;33579;50.058;18.130;2023-02-13T00:45:39;101294.16;;;2.30;100.00
47815;BME280;33579;50.058;18.130;2023-02-13T00:46:41;101298.44;;;2.32;100.00
47815;BME280;33579;50.058;18.130;2023-02-13T00:47:42;101297.53;;;2.33;100.00
47815;BME280;33579;50.058;18.130;2023-02-13T00:48:44;101301.00;;;2.35;100.00
47815;BME280;33579;50.058;18.130;2023-02-13T00:49:46;101294.88;;;2.38;100.00
47815;BME280;33579;50.058;18.130;2023-02-13T00:50:47;101296.56;;;2.39;100.00
47815;BME280;33579;50.058;18.130;2023-02-13T00:51:49;101293.09;;;2.40;100.00
47815;BME280;33579;50.058;18.130;2023-02-13T00:52:50;101293.09;;;2.40;100.00
47815;BME280;33579;50.058;18.130;2023-02-13T00:53:53;101294.81;;;2.41;100.00
47815;BME280;33579;50.058;18.130;2023-02-13T00:54:54;101294.81;;;2.41;100.00
47815;BME280;33579;50.058;18.130;2023-02-13T00:55:56;101293.94;;;2.42;100.00
47815;BME280;33579;50.058;18.130;2023-02-13T00:56:58;101289.66;;;2.39;100.00
47815;BME280;33579;50.058;18.130;2023-02-13T00:57:59;101293.06;;;2.42;100.00
47815;BME280;33579;50.058;18.130;2023-02-13T00:59:01;101286.97;;;2.43;100.00
47815;BME280;33579;50.058;18.130;2023-02-13T01:00:02;101284.38;;;2.44;100.00
47815;BME280;33579;50.058;18.130;2023-02-13T01:01:05;101289.50;;;2.47;100.00
47815;BME280;33579;50.058;18.130;2023-02-13T01:02:06;101284.28;;;2.49;100.00
47815;BME280;33579;50.058;18.130;2023-02-13T01:03:08;101279.09;;;2.49;100.00
47815;BME280;33579;50.058;18.130;2023-02-13T01:04:10;101290.31;;;2.49;100.00
47815;BME280;33579;50.058;18.130;2023-02-13T01:05:12;101279.91;;;2.49;100.00
47815;BME280;33579;50.058;18.130;2023-02-13T01:06:14;101282.50;;;2.51;100.00
47815;BME280;33579;50.058;18.130;2023-02-13T01:07:16;101290.22;;;2.54;100.00
47815;BME280;33579;50.058;18.130;2023-02-13T01:08:18;101294.53;;;2.57;100.00
47815;BME280;33579;50.058;18.130;2023-02-13T01:09:21;101293.66;;;2.56;100.00
47815;BME280;33579;50.058;18.130;2023-02-13T01:10:23;101296.22;;;2.58;100.00
47815;BME280;33579;50.058;18.130;2023-02-13T01:11:25;101297.97;;;2.57;100.00
47815;BME280;33579;50.058;18.130;2023-02-13T01:12:26;101291.03;;;2.58;100.00
47815;BME280;33579;50.058;18.130;2023-02-13T01:13:28;101294.47;;;2.58;100.00
47815;BME280;33579;50.058;18.130;2023-02-13T01:14:29;101294.47;;;2.58;100.00
47815;BME280;33579;50.058;18.130;2023-02-13T01:15:31;101290.13;;;2.59;100.00
47815;BME280;33579;50.058;18.130;2023-02-13T01:16:33;101296.25;;;2.56;100.00
47815;BME280;33579;50.058;18.130;2023-02-13T01:17:34;101296.28;;;2.55;100.00
47815;BME280;33579;50.058;18.130;2023-02-13T01:18:36;101291.13;;;2.53;100.00
47815;BME280;33579;50.058;18.130;2023-02-13T01:19:39;101288.50;;;2.55;100.00
47815;BME280;33579;50.058;18.130;2023-02-13T01:20:42;101299.72;;;2.57;100.00
47815;BME280;33579;50.058;18.130;2023-02-13T01:21:44;101292.75;;;2.57;100.00
47815;BME280;33579;50.058;18.130;2023-02-13T01:22:45;101289.31;;;2.57;100.00
47815;BME280;33579;50.058;18.130;2023-02-13T01:23:47;101285.84;;;2.56;100.00
47815;BME280;33579;50.058;18.130;2023-02-13T01:24:49;101285.84;;;2.56;100.00
47815;BME280;33579;50.058;18.130;2023-02-13T01:25:50;101285.00;;;2.56;100.00
47815;BME280;33579;50.058;18.130;2023-02-13T01:26:52;101283.25;;;2.56;100.00
47815;BME280;33579;50.058;18.130;2023-02-13T01:27:54;101279.81;;;2.56;100.00
47815;BME280;33579;50.058;18.130;2023-02-13T01:28:56;101275.47;;;2.56;100.00
47815;BME280;33579;50.058;18.130;2023-02-13T01:29:58;101273.91;;;2.46;100.00
47815;BME280;33579;50.058;18.130;2023-02-13T01:31:00;101271.47;;;2.39;100.00
47815;BME280;33579;50.058;18.130;2023-02-13T01:32:02;101276.75;;;2.35;100.00
47815;BME280;33579;50.058;18.130;2023-02-13T01:33:04;101277.63;;;2.35;100.00
47815;BME280;33579;50.058;18.130;2023-02-13T01:34:06;101280.16;;;2.38;100.00
47815;BME280;33579;50.058;18.130;2023-02-13T01:35:09;101278.38;;;2.39;100.00
47815;BME280;33579;50.058;18.130;2023-02-13T01:36:12;101279.25;;;2.41;100.00
47815;BME280;33579;50.058;18.130;2023-02-13T01:37:14;101274.00;;;2.43;100.00
47815;BME280;33579;50.058;18.130;2023-02-13T01:38:16;101268.72;;;2.46;100.00
47815;BME280;33579;50.058;18.130;2023-02-13T01:39:18;101275.69;;;2.45;100.00
47815;BME280;33579;50.058;18.130;2023-02-13T01:40:19;101267.97;;;2.41;100.00
47815;BME280;33579;50.058;18.130;2023-02-13T01:41:22;101270.56;;;2.41;100.00
47815;BME280;33579;50.058;18.130;2023-02-13T01:42:27;101275.78;;;2.39;100.00
47815;BME280;33579;50.058;18.130;2023-02-13T01:44:54;101267.09;;;2.40;100.00
47815;BME280;33579;50.058;18.130;2023-02-13T01:45:56;101263.75;;;2.36;100.00
47815;BME280;33579;50.058;18.130;2023-02-13T01:46:58;101271.47;;;2.38;100.00
47815;BME280;33579;50.058;18.130;2023-02-13T01:49:16;101263.53;;;2.46;100.00
47815;BME280;33579;50.058;18.130;2023-02-13T01:50:29;101265.22;;;2.48;100.00
47815;BME280;33579;50.058;18.130;2023-02-13T01:51:33;101262.75;;;2.42;100.00
47815;BME280;33579;50.058;18.130;2023-02-13T01:52:37;101262.88;;;2.36;100.00
47815;BME280;33579;50.058;18.130;2023-02-13T01:53:45;101264.56;;;2.37;100.00
47815;BME280;33579;50.058;18.130;2023-02-13T01:54:49;101271.56;;;2.35;100.00
47815;BME280;33579;50.058;18.130;2023-02-13T01:55:57;101265.47;;;2.34;100.00
47815;BME280;33579;50.058;18.130;2023-02-13T01:57:24;101263.66;;;2.39;100.00
47815;BME280;33579;50.058;18.130;2023-02-13T01:58:31;101264.56;;;2.38;100.00
47815;BME280;33579;50.058;18.130;2023-02-13T01:59:43;101266.41;;;2.32;100.00
47815;BME280;33579;50.058;18.130;2023-02-13T02:00:47;101259.69;;;2.20;100.00
47815;BME280;33579;50.058;18.130;2023-02-13T02:01:49;101254.66;;;2.12;100.00
47815;BME280;33579;50.058;18.130;2023-02-13T02:02:55;101251.22;;;2.10;100.00
47815;BME280;33579;50.058;18.130;2023-02-13T02:04:06;101254.69;;;2.10;100.00
47815;BME280;33579;50.058;18.130;2023-02-13T02:05:10;101258.94;;;2.16;100.00
47815;BME280;33579;50.058;18.130;2023-02-13T02:06:21;101250.25;;;2.16;100.00
47815;BME280;33579;50.058;18.130;2023-02-13T02:07:26;101250.19;;;2.19;100.00
47815;BME280;33579;50.058;18.130;2023-02-13T02:08:34;101255.31;;;2.23;100.00
47815;BME280;33579;50.058;18.130;2023-02-13T02:09:38;101250.13;;;2.23;100.00
47815;BME280;33579;50.058;18.130;2023-02-13T02:10:41;101253.50;;;2.27;100.00
47815;BME280;33579;50.058;18.130;2023-02-13T02:11:55;101258.69;;;2.29;100.00
47815;BME280;33579;50.058;18.130;2023-02-13T02:14:02;101255.00;;;2.39;100.00
47815;BME280;33579;50.058;18.130;2023-02-13T02:15:08;101257.59;;;2.39;100.00
47815;BME280;33579;50.058;18.130;2023-02-13T02:16:11;101258.41;;;2.43;100.00
47815;BME280;33579;50.058;18.130;2023-02-13T02:17:13;101249.78;;;2.42;100.00
47815;BME280;33579;50.058;18.130;2023-02-13T02:18:16;101251.44;;;2.45;100.00
47815;BME280;33579;50.058;18.130;2023-02-13T02:20:40;101243.53;;;2.49;100.00
47815;BME280;33579;50.058;18.130;2023-02-13T02:27:45;101240.09;;;2.49;100.00
47815;BME280;33579;50.058;18.130;2023-02-13T02:36:19;101239.16;;;2.53;100.00
47815;BME280;33579;50.058;18.130;2023-02-13T02:37:49;101232.25;;;2.52;100.00
47815;BME280;33579;50.058;18.130;2023-02-13T02:39:11;101233.09;;;2.52;100.00
47815;BME280;33579;50.058;18.130;2023-02-13T02:40:58;101236.63;;;2.50;100.00
47815;BME280;33579;50.058;18.130;2023-02-13T02:43:28;101236.63;;;2.48;100.00
47815;BME280;33579;50.058;18.130;2023-02-13T02:44:45;101241.81;;;2.50;100.00
47815;BME280;33579;50.058;18.130;2023-02-13T02:48:42;101235.63;;;2.56;100.00
47815;BME280;33579;50.058;18.130;2023-02-13T02:49:52;101239.13;;;2.55;100.00
47815;BME280;33579;50.058;18.130;2023-02-13T02:51:04;101240.88;;;2.52;100.00
47815;BME280;33579;50.058;18.130;2023-02-13T02:54:21;101233.88;;;2.56;100.00
47815;BME280;33579;50.058;18.130;2023-02-13T02:56:47;101235.59;;;2.57;100.00
47815;BME280;33579;50.058;18.130;2023-02-13T02:58:06;101239.94;;;2.57;100.00
47815;BME280;33579;50.058;18.130;2023-02-13T02:59:13;101234.75;;;2.57;100.00
47815;BME280;33579;50.058;18.130;2023-02-13T03:00:18;101236.47;;;2.58;100.00
47815;BME280;33579;50.058;18.130;2023-02-13T03:01:24;101239.88;;;2.60;100.00
47815;BME280;33579;50.058;18.130;2023-02-13T03:02:29;101239.88;;;2.60;100.00
47815;BME280;33579;50.058;18.130;2023-02-13T03:03:32;101236.31;;;2.64;100.00
47815;BME280;33579;50.058;18.130;2023-02-13T03:04:41;101228.50;;;2.65;100.00
47815;BME280;33579;50.058;18.130;2023-02-13T03:05:46;101232.00;;;2.64;100.00
47815;BME280;33579;50.058;18.130;2023-02-13T03:06:53;101230.28;;;2.63;100.00
47815;BME280;33579;50.058;18.130;2023-02-13T03:07:56;101231.97;;;2.66;100.00
47815;BME280;33579;50.058;18.130;2023-02-13T03:09:04;101236.28;;;2.65;100.00
47815;BME280;33579;50.058;18.130;2023-02-13T03:10:10;101231.25;;;2.58;100.00
47815;BME280;33579;50.058;18.130;2023-02-13T03:11:12;101233.13;;;2.51;100.00
47815;BME280;33579;50.058;18.130;2023-02-13T03:12:18;101231.44;;;2.48;100.00
47815;BME280;33579;50.058;18.130;2023-02-13T03:13:43;101234.94;;;2.46;100.00
47815;BME280;33579;50.058;18.130;2023-02-13T03:14:47;101228.06;;;2.45;100.00
47815;BME280;33579;50.058;18.130;2023-02-13T03:15:51;101228.13;;;2.42;100.00
47815;BME280;33579;50.058;18.130;2023-02-13T03:16:56;101233.28;;;2.43;100.00
47815;BME280;33579;50.058;18.130;2023-02-13T03:17:58;101229.88;;;2.41;100.00
47815;BME280;33579;50.058;18.130;2023-02-13T03:19:00;101240.19;;;2.44;100.00
47815;BME280;33579;50.058;18.130;2023-02-13T03:20:18;101230.53;;;2.51;100.00
47815;BME280;33579;50.058;18.130;2023-02-13T03:23:12;101239.91;;;2.58;100.00
47815;BME280;33579;50.058;18.130;2023-02-13T03:24:24;101236.38;;;2.61;100.00
47815;BME280;33579;50.058;18.130;2023-02-13T03:27:03;101233.69;;;2.65;100.00
47815;BME280;33579;50.058;18.130;2023-02-13T03:28:26;101229.38;;;2.66;100.00
47815;BME280;33579;50.058;18.130;2023-02-13T03:29:51;101228.50;;;2.65;100.00
47815;BME280;33579;50.058;18.130;2023-02-13T03:31:05;101230.28;;;2.63;100.00
47815;BME280;33579;50.058;18.130;2023-02-13T03:34:49;101239.25;;;2.48;100.00
47815;BME280;33579;50.058;18.130;2023-02-13T03:36:26;101236.56;;;2.53;100.00
47815;BME280;33579;50.058;18.130;2023-02-13T03:37:35;101237.34;;;2.57;100.00
47815;BME280;33579;50.058;18.130;2023-02-13T03:39:06;101238.16;;;2.60;100.00
47815;BME280;33579;50.058;18.130;2023-02-13T03:40:19;101237.19;;;2.64;100.00
47815;BME280;33579;50.058;18.130;2023-02-13T03:41:29;101241.50;;;2.65;100.00
47815;BME280;33579;50.058;18.130;2023-02-13T03:42:36;101238.00;;;2.66;100.00
47815;BME280;33579;50.058;18.130;2023-02-13T03:44:59;101241.81;;;2.50;100.00
47815;BME280;33579;50.058;18.130;2023-02-13T03:46:03;101233.28;;;2.43;100.00
47815;BME280;33579;50.058;18.130;2023-02-13T03:47:08;101235.19;;;2.35;100.00
47815;BME280;33579;50.058;18.130;2023-02-13T03:48:11;101243.94;;;2.31;100.00
47815;BME280;33579;50.058;18.130;2023-02-13T03:49:24;101234.56;;;2.22;100.00
47815;BME280;33579;50.058;18.130;2023-02-13T03:50:27;101236.31;;;2.21;100.00
47815;BME280;33579;50.058;18.130;2023-02-13T03:51:42;101235.31;;;2.29;100.00
47815;BME280;33579;50.058;18.130;2023-02-13T03:52:51;101235.16;;;2.36;100.00
47815;BME280;33579;50.058;18.130;2023-02-13T03:53:57;101230.72;;;2.42;100.00
47815;BME280;33579;50.058;18.130;2023-02-13T03:55:06;101235.00;;;2.44;100.00
47815;BME280;33579;50.058;18.130;2023-02-13T03:56:10;101235.81;;;2.48;100.00
47815;BME280;33579;50.058;18.130;2023-02-13T03:57:17;101231.44;;;2.50;100.00
47815;BME280;33579;50.058;18.130;2023-02-13T03:58:27;101230.47;;;2.54;100.00
47815;BME280;33579;50.058;18.130;2023-02-13T03:59:33;101233.88;;;2.58;100.00
47815;BME280;33579;50.058;18.130;2023-02-13T04:00:39;101230.34;;;2.60;100.00
47815;BME280;33579;50.058;18.130;2023-02-13T04:01:57;101225.09;;;2.63;100.00
47815;BME280;33579;50.058;18.130;2023-02-13T04:03:07;101230.28;;;2.63;100.00
47815;BME280;33579;50.058;18.130;2023-02-13T04:04:18;101237.19;;;2.64;100.00
47815;BME280;33579;50.058;18.130;2023-02-13T04:05:24;101228.47;;;2.67;100.00
47815;BME280;33579;50.058;18.130;2023-02-13T04:06:38;101231.00;;;2.70;100.00
47815;BME280;33579;50.058;18.130;2023-02-13T04:07:43;101231.03;;;2.69;100.00
47815;BME280;33579;50.058;18.130;2023-02-13T04:08:45;101230.19;;;2.68;100.00
47815;BME280;33579;50.058;18.130;2023-02-13T04:09:47;101228.56;;;2.62;100.00
47815;BME280;33579;50.058;18.130;2023-02-13T04:11:36;101231.16;;;2.62;100.00
47815;BME280;33579;50.058;18.130;2023-02-13T04:12:52;101224.28;;;2.60;100.00
47815;BME280;33579;50.058;18.130;2023-02-13T04:14:00;101221.63;;;2.63;100.00
47815;BME280;33579;50.058;18.130;2023-02-13T04:15:30;101230.22;;;2.66;100.00
47815;BME280;33579;50.058;18.130;2023-02-13T04:17:40;101225.81;;;2.69;100.00
47815;BME280;33579;50.058;18.130;2023-02-13T04:18:44;101225.00;;;2.68;100.00
47815;BME280;33579;50.058;18.130;2023-02-13T04:19:46;101224.09;;;2.69;100.00
47815;BME280;33579;50.058;18.130;2023-02-13T04:20:48;101231.91;;;2.69;100.00
47815;BME280;33579;50.058;18.130;2023-02-13T04:21:55;101232.78;;;2.68;100.00
47815;BME280;33579;50.058;18.130;2023-02-13T04:23:06;101231.00;;;2.70;100.00
47815;BME280;33579;50.058;18.130;2023-02-13T04:24:08;101228.34;;;2.73;100.00
47815;BME280;33579;50.058;18.130;2023-02-13T04:25:11;101229.13;;;2.77;100.00
47815;BME280;33579;50.058;18.130;2023-02-13T04:26:17;101230.84;;;2.78;100.00
47815;BME280;33579;50.058;18.130;2023-02-13T04:27:19;101230.84;;;2.78;100.00
47815;BME280;33579;50.058;18.130;2023-02-13T04:28:21;101231.72;;;2.78;100.00
47815;BME280;33579;50.058;18.130;2023-02-13T04:29:24;101235.13;;;2.79;100.00
47815;BME280;33579;50.058;18.130;2023-02-13T04:30:26;101229.94;;;2.79;100.00
47815;BME280;33579;50.058;18.130;2023-02-13T04:31:27;101237.81;;;2.76;100.00
47815;BME280;33579;50.058;18.130;2023-02-13T04:32:29;101233.50;;;2.75;100.00
47815;BME280;33579;50.058;18.130;2023-02-13T04:33:30;101229.22;;;2.72;100.00
47815;BME280;33579;50.058;18.130;2023-02-13T04:34:32;101224.09;;;2.69;100.00
47815;BME280;33579;50.058;18.130;2023-02-13T04:35:34;101229.31;;;2.67;100.00
47815;BME280;33579;50.058;18.130;2023-02-13T04:36:35;101231.06;;;2.67;100.00
47815;BME280;33579;50.058;18.130;2023-02-13T04:37:37;101231.03;;;2.69;100.00
47815;BME280;33579;50.058;18.130;2023-02-13T04:38:38;101233.69;;;2.65;100.00
47815;BME280;33579;50.058;18.130;2023-02-13T04:39:40;101231.09;;;2.65;100.00
47815;BME280;33579;50.058;18.130;2023-02-13T04:40:41;101226.09;;;2.56;100.00
47815;BME280;33579;50.058;18.130;2023-02-13T04:41:43;101226.25;;;2.47;100.00
47815;BME280;33579;50.058;18.130;2023-02-13T04:42:46;101216.84;;;2.43;100.00
47815;BME280;33579;50.058;18.130;2023-02-13T04:43:48;101219.34;;;2.47;100.00
47815;BME280;33579;50.058;18.130;2023-02-13T04:44:50;101234.81;;;2.53;100.00
47815;BME280;33579;50.058;18.130;2023-02-13T04:45:51;101225.19;;;2.57;100.00
47815;BME280;33579;50.058;18.130;2023-02-13T04:46:53;101220.88;;;2.58;100.00
47815;BME280;33579;50.058;18.130;2023-02-13T04:47:56;101227.75;;;2.60;100.00
47815;BME280;33579;50.058;18.130;2023-02-13T04:48:57;101227.69;;;2.63;100.00
47815;BME280;33579;50.058;18.130;2023-02-13T04:49:59;101228.50;;;2.65;100.00
47815;BME280;33579;50.058;18.130;2023-02-13T04:51:00;101226.88;;;2.61;100.00
47815;BME280;33579;50.058;18.130;2023-02-13T04:52:02;101225.19;;;2.59;100.00
47815;BME280;33579;50.058;18.130;2023-02-13T04:53:04;101229.56;;;2.57;100.00
47815;BME280;33579;50.058;18.130;2023-02-13T04:54:05;101224.34;;;2.57;100.00
47815;BME280;33579;50.058;18.130;2023-02-13T04:55:07;101226.09;;;2.56;100.00
47815;BME280;33579;50.058;18.130;2023-02-13T04:56:08;101228.66;;;2.58;100.00
47815;BME280;33579;50.058;18.130;2023-02-13T04:57:10;101221.72;;;2.58;100.00
47815;BME280;33579;50.058;18.130;2023-02-13T04:58:11;101218.22;;;2.59;100.00
47815;BME280;33579;50.058;18.130;2023-02-13T04:59:13;101228.63;;;2.59;100.00
47815;BME280;33579;50.058;18.130;2023-02-13T05:00:15;101225.09;;;2.62;100.00
47815;BME280;33579;50.058;18.130;2023-02-13T05:01:17;101226.88;;;2.60;100.00
47815;BME280;33579;50.058;18.130;2023-02-13T05:02:18;101229.50;;;2.58;100.00
47815;BME280;33579;50.058;18.130;2023-02-13T05:03:20;101227.75;;;2.60;100.00
47815;BME280;33579;50.058;18.130;2023-02-13T05:04:21;101232.09;;;2.60;100.00
47815;BME280;33579;50.058;18.130;2023-02-13T05:05:23;101226.88;;;2.60;100.00
47815;BME280;33579;50.058;18.130;2023-02-13T05:06:25;101228.59;;;2.61;100.00
47815;BME280;33579;50.058;18.130;2023-02-13T05:07:26;101234.59;;;2.63;100.00
47815;BME280;33579;50.058;18.130;2023-02-13T05:08:28;101225.09;;;2.63;100.00
47815;BME280;33579;50.058;18.130;2023-02-13T05:09:29;101231.19;;;2.61;100.00
47815;BME280;33579;50.058;18.130;2023-02-13T05:10:31;101227.75;;;2.60;100.00
47815;BME280;33579;50.058;18.130;2023-02-13T05:11:33;101220.81;;;2.59;100.00
47815;BME280;33579;50.058;18.130;2023-02-13T05:12:34;101227.78;;;2.59;100.00
47815;BME280;33579;50.058;18.130;2023-02-13T05:13:36;101227.78;;;2.57;100.00
47815;BME280;33579;50.058;18.130;2023-02-13T05:14:38;101227.06;;;2.52;100.00
47815;BME280;33579;50.058;18.130;2023-02-13T05:15:39;101226.31;;;2.45;100.00
47815;BME280;33579;50.058;18.130;2023-02-13T05:16:41;101229.03;;;2.39;100.00
47815;BME280;33579;50.058;18.130;2023-02-13T05:17:43;101218.72;;;2.34;100.00
47815;BME280;33579;50.058;18.130;2023-02-13T05:18:45;101216.19;;;2.33;100.00
47815;BME280;33579;50.058;18.130;2023-02-13T05:19:46;101217.00;;;2.33;100.00
47815;BME280;33579;50.058;18.130;2023-02-13T05:20:48;101222.19;;;2.35;100.00
47815;BME280;33579;50.058;18.130;2023-02-13T05:21:49;101221.28;;;2.37;100.00
47815;BME280;33579;50.058;18.130;2023-02-13T05:22:52;101219.47;;;2.41;100.00
47815;BME280;33579;50.058;18.130;2023-02-13T05:23:54;101214.22;;;2.44;100.00
47815;BME280;33579;50.058;18.130;2023-02-13T05:24:56;101215.03;;;2.46;100.00
47815;BME280;33579;50.058;18.130;2023-02-13T05:25:57;101218.44;;;2.48;100.00
47815;BME280;33579;50.058;18.130;2023-02-13T05:26:59;101214.97;;;2.49;100.00
47815;BME280;33579;50.058;18.130;2023-02-13T05:28:00;101221.84;;;2.52;100.00
47815;BME280;33579;50.058;18.130;2023-02-13T05:29:02;101213.16;;;2.53;100.00
47815;BME280;33579;50.058;18.130;2023-02-13T05:30:04;101213.97;;;2.55;100.00
47815;BME280;33579;50.058;18.130;2023-02-13T05:31:06;101217.44;;;2.56;100.00
47815;BME280;33579;50.058;18.130;2023-02-13T05:32:07;101219.19;;;2.55;100.00
47815;BME280;33579;50.058;18.130;2023-02-13T05:33:09;101218.34;;;2.53;100.00
47815;BME280;33579;50.058;18.130;2023-02-13T05:34:11;101220.16;;;2.51;100.00
47815;BME280;33579;50.058;18.130;2023-02-13T05:35:13;101214.13;;;2.49;100.00
47815;BME280;33579;50.058;18.130;2023-02-13T05:36:14;101218.53;;;2.45;100.00
47815;BME280;33579;50.058;18.130;2023-02-13T05:37:16;101215.94;;;2.45;100.00
47815;BME280;33579;50.058;18.130;2023-02-13T05:38:17;101221.13;;;2.45;100.00
47815;BME280;33579;50.058;18.130;2023-02-13T05:39:19;101220.31;;;2.43;100.00
47815;BME280;33579;50.058;18.130;2023-02-13T05:40:20;101208.13;;;2.45;100.00
47815;BME280;33579;50.058;18.130;2023-02-13T05:41:23;101212.44;;;2.46;100.00
47815;BME280;33579;50.058;18.130;2023-02-13T05:42:24;101218.47;;;2.47;100.00
47815;BME280;33579;50.058;18.130;2023-02-13T05:43:28;101214.16;;;2.46;100.00
47815;BME280;33579;50.058;18.130;2023-02-13T05:44:30;101215.94;;;2.45;100.00
47815;BME280;33579;50.058;18.130;2023-02-13T05:45:32;101215.06;;;2.45;100.00
47815;BME280;33579;50.058;18.130;2023-02-13T05:46:33;101226.25;;;2.47;100.00
47815;BME280;33579;50.058;18.130;2023-02-13T05:47:35;101224.59;;;2.44;100.00
47815;BME280;33579;50.058;18.130;2023-02-13T05:48:37;101219.50;;;2.39;100.00
47815;BME280;33579;50.058;18.130;2023-02-13T05:49:38;101218.63;;;2.39;100.00
47815;BME280;33579;50.058;18.130;2023-02-13T05:50:40;101221.22;;;2.39;100.00
47815;BME280;33579;50.058;18.130;2023-02-13T05:51:41;101223.00;;;2.38;100.00
47815;BME280;33579;50.058;18.130;2023-02-13T05:52:43;101217.88;;;2.34;100.00
47815;BME280;33579;50.058;18.130;2023-02-13T05:53:45;101214.47;;;2.32;100.00
47815;BME280;33579;50.058;18.130;2023-02-13T05:54:46;101211.00;;;2.31;100.00
47815;BME280;33579;50.058;18.130;2023-02-13T05:55:48;101206.69;;;2.32;100.00
47815;BME280;33579;50.058;18.130;2023-02-13T05:56:50;101205.06;;;2.26;100.00
47815;BME280;33579;50.058;18.130;2023-02-13T05:57:55;101205.06;;;2.24;100.00
47815;BME280;33579;50.058;18.130;2023-02-13T05:58:57;101205.06;;;2.26;100.00
47815;BME280;33579;50.058;18.130;2023-02-13T05:59:59;101214.56;;;2.27;100.00
47815;BME280;33579;50.058;18.130;2023-02-13T06:01:00;101214.53;;;2.29;100.00
47815;BME280;33579;50.058;18.130;2023-02-13T06:02:02;101221.38;;;2.31;100.00
47815;BME280;33579;50.058;18.130;2023-02-13T06:03:04;101217.94;;;2.31;100.00
47815;BME280;33579;50.058;18.130;2023-02-13T06:04:05;101216.19;;;2.33;100.00
47815;BME280;33579;50.058;18.130;2023-02-13T06:05:07;101225.69;;;2.32;100.00
47815;BME280;33579;50.058;18.130;2023-02-13T06:06:08;101229.16;;;2.33;100.00
47815;BME280;33579;50.058;18.130;2023-02-13T06:07:10;101221.38;;;2.33;100.00